Terminal Aerodrome Forecast
Issued by NWS

Home | Current Version | Previous Version | Text Only | Print | Product List | Glossary On
Versions: 1 2 3 4 5 6 7 8 9 10 11 12 13
859
FTUS42 KGSP 242321
TAFAND
TAF
KAND 242321Z 2500/2524 24005KT P6SM FEW040 BKN250
     FM250300 VRB02KT P6SM BKN250
     FM251000 00000KT 4SM BR SCT003 BKN250
     FM251300 04004KT P6SM FEW040 BKN250=

USA.gov is the U.S. government's official web portal to all federal, state and local government web resources and services.